FW2641 Weather Reports


Display with metric or nautical units.
time (UTC)temp
F
wind
direction
speed
MPH
gust
MPH
rain 1hr
in
rain 24hr
in
rain mn
in
humidity
%
barometer
mb
20190218185744 48 284 2.0 4.0 0.00 0.00 0.00 85 1013.9
20190218185108 49 296 2.0 4.0 0.00 0.00 0.00 83 1014.0
20190218184609 49 288 3.0 5.0 0.00 0.00 0.00 84 1014.0
20190218184055 48 245 2.0 5.0 0.00 0.00 0.00 85 1014.0
20190218183454 47 262 2.0 4.0 0.00 0.00 0.00 86 1014.0
20190218182955 47 250 2.0 3.0 0.00 0.00 0.00 86 1014.0
20190218182357 47 192 1.0 2.0 0.00 0.00 0.00 86 1014.0
20190218181842 46 192 1.0 2.0 0.00 0.00 0.00 87 1014.0
20190218181329 46 192 1.0 1.0 0.00 0.00 0.00 86 1014.0
20190218180723 46 192 1.0 1.0 0.00 0.00 0.00 86 1014.0
20190218180226 46 192 1.0 2.0 0.00 0.00 0.00 85 1013.9
20190218175550 46 192 1.0 2.0 0.00 0.00 0.00 85 1013.9
20190218175052 46 192 1.0 1.0 0.00 0.00 0.00 84 1013.9
20190218174448 47 192 0.0 1.0 0.00 0.00 0.00 84 1013.8
20190218173843 47 192 0.0 1.0 0.00 0.00 0.00 83 1013.8
20190218173345 48 192 1.0 1.0 0.00 0.00 0.00 83 1013.8
20190218172746 48 192 1.0 2.0 0.00 0.00 0.00 82 1013.8
20190218172247 48 190 1.0 2.0 0.00 0.00 0.00 82 1013.8
20190218171745 49 201 1.0 2.0 0.00 0.00 0.00 81 1013.7
20190218171110 50 201 1.0 1.0 0.00 0.00 0.00 79 1013.7
20190218170609 50 201 0.0 1.0 0.00 0.00 0.00 78 1013.7
20190218170007 51 201 0.0 1.0 0.00 0.00 0.00 78 1013.7
20190218165406 52 201 1.0 4.0 0.00 0.00 0.00 76 1013.7
20190218164853 52 201 1.0 5.0 0.00 0.00 0.00 74 1013.7
20190218164250 53 198 1.0 5.0 0.00 0.00 0.00 73 1013.7
20190218163752 54 188 2.0 4.0 0.00 0.00 0.00 72 1013.7
20190218163134 55 225 2.0 4.0 0.00 0.00 0.00 72 1013.7
20190218162513 55 247 2.0 4.0 0.00 0.00 0.00 70 1013.8
20190218161912 55 236 2.0 5.0 0.00 0.00 0.00 70 1013.8
20190218161311 55 228 3.0 5.0 0.00 0.00 0.00 69 1013.8
20190218160810 56 232 3.0 5.0 0.00 0.00 0.00 69 1013.8
20190218160308 56 175 3.0 6.0 0.00 0.00 0.00 68 1014.2
20190218155706 56 214 4.0 6.0 0.00 0.00 0.00 69 1013.7
20190218155204 56 188 4.0 2.0 0.00 0.00 0.00 69 1014.2
20190218154053 56 217 6.0 11.0 0.00 0.00 0.00 69 1013.8
20190218153530 56 156 5.0 10.0 0.00 0.00 0.00 68 1013.8
20190218153031 57 174 5.0 10.0 0.00 0.00 0.00 68 1013.9
20190218152532 57 186 6.0 9.0 0.00 0.00 0.00 67 1013.8
20190218152031 57 185 7.0 10.0 0.00 0.00 0.00 67 1013.8
20190218151527 57 175 6.0 10.0 0.00 0.00 0.00 67 1013.9
20190218151025 57 200 5.0 10.0 0.00 0.00 0.00 67 1013.9
20190218150524 57 199 4.0 9.0 0.00 0.00 0.00 67 1013.9
20190218150024 57 211 5.0 10.0 0.00 0.00 0.00 67 1013.9
20190218145522 57 176 5.0 10.0 0.00 0.00 0.00 67 1014.0
20190218145023 58 178 5.0 10.0 0.00 0.00 0.00 66 1014.0
20190218144520 58 201 6.0 11.0 0.00 0.00 0.00 66 1014.0
20190218144014 58 298 6.0 11.0 0.00 0.00 0.00 66 1014.0
20190218143514 58 224 6.0 10.0 0.00 0.00 0.00 65 1014.1
20190218143015 58 168 5.0 8.0 0.00 0.00 0.00 66 1014.1
20190218142510 58 218 6.0 12.0 0.00 0.00 0.00 66 1014.1
20190218142008 58 186 7.0 13.0 0.00 0.00 0.00 65 1014.2
20190218141507 58 216 7.0 13.0 0.00 0.00 0.00 65 1014.2
20190218141005 58 182 6.0 10.0 0.00 0.00 0.00 66 1014.3
20190218140506 58 218 6.0 10.0 0.00 0.00 0.00 66 1014.2
20190218135954 58 189 7.0 11.0 0.00 0.00 0.00 66 1014.3
20190218135450 58 172 6.0 11.0 0.00 0.00 0.00 65 1014.3
20190218134950 58 171 5.0 9.0 0.00 0.00 0.00 66 1014.3
20190218134452 58 201 6.0 12.0 0.00 0.00 0.00 65 1014.4
20190218133950 58 241 6.0 12.0 0.00 0.00 0.00 65 1014.4
20190218132943 58 194 7.0 11.0 0.00 0.00 0.00 65 1014.5
20190218132442 58 202 7.0 11.0 0.00 0.00 0.00 65 1014.7
20190218131945 58 238 6.0 11.0 0.00 0.00 0.00 64 1014.7
20190218131442 58 175 7.0 15.0 0.00 0.00 0.00 64 1014.8
20190218130941 58 186 10.0 18.0 0.00 0.00 0.00 65 1014.8
20190218130440 58 180 11.0 18.0 0.00 0.00 0.00 65 1014.8
20190218125938 58 203 10.0 18.0 0.00 0.00 0.00 64 1014.9
20190218125438 58 153 7.0 15.0 0.00 0.00 0.00 64 1015.0
20190218124938 58 216 6.0 10.0 0.00 0.00 0.00 65 1015.1
20190218124436 58 192 5.0 10.0 0.00 0.00 0.00 64 1015.2
20190218123934 57 194 6.0 9.0 0.00 0.00 0.00 66 1015.3
20190218123436 57 171 6.0 9.0 0.00 0.00 0.00 64 1015.4
20190218122932 57 164 6.0 8.0 0.00 0.00 0.00 65 1015.4
20190218122432 56 169 6.0 9.0 0.00 0.00 0.00 65 1015.5
20190218121931 56 144 6.0 10.0 0.00 0.00 0.00 65 1015.5
20190218121430 56 193 6.0 10.0 0.00 0.00 0.00 66 1015.5
20190218120930 56 164 6.0 10.0 0.00 0.00 0.00 66 1015.6
20190218120431 56 172 6.0 11.0 0.00 0.00 0.00 67 1015.7
20190218115931 56 202 6.0 11.0 0.00 0.00 0.00 66 1015.7
20190218115431 56 181 6.0 10.0 0.00 0.00 0.00 67 1015.7
20190218114931 55 194 7.0 11.0 0.00 0.00 0.00 66 1015.8
20190218114431 55 165 6.0 11.0 0.00 0.00 0.00 66 1015.8
20190218113932 55 184 6.0 11.0 0.00 0.00 0.00 66 1015.9
20190218113431 55 178 6.0 9.0 0.00 0.00 0.00 66 1016.0
20190218112928 55 188 6.0 9.0 0.00 0.00 0.00 65 1016.1
20190218112426 54 159 6.0 10.0 0.00 0.00 0.00 65 1016.1
20190218111926 54 213 6.0 10.0 0.00 0.00 0.00 65 1016.2
20190218111426 54 209 5.0 8.0 0.00 0.00 0.00 66 1016.2
20190218110926 54 153 5.0 8.0 0.00 0.00 0.00 65 1016.4
20190218110428 53 210 5.0 9.0 0.00 0.00 0.00 65 1016.4
20190218105924 53 195 5.0 10.0 0.00 0.00 0.00 65 1016.5
20190218105424 53 187 6.0 11.0 0.00 0.00 0.00 65 1016.6
20190218104916 52 181 6.0 11.0 0.00 0.00 0.00 67 1016.5
20190218104407 52 194 6.0 10.0 0.00 0.00 0.00 66 1016.5
20190218103906 51 192 7.0 11.0 0.00 0.00 0.00 66 1016.6
20190218103405 51 186 7.0 11.0 0.00 0.00 0.00 67 1016.6
20190218102905 51 169 5.0 10.0 0.00 0.00 0.00 68 1016.6
20190218102402 51 186 5.0 10.0 0.00 0.00 0.00 67 1016.5
20190218101905 50 237 4.0 10.0 0.00 0.00 0.00 68 1016.6
20190218101403 50 182 5.0 10.0 0.00 0.00 0.00 68 1016.5
20190218100904 50 197 6.0 10.0 0.00 0.00 0.00 68 1016.5
20190218100402 49 181 5.0 10.0 0.00 0.00 0.00 68 1016.6
20190218095901 49 192 5.0 9.0 0.00 0.00 0.00 68 1016.6
20190218095358 49 162 5.0 9.0 0.00 0.00 0.00 68 1016.7
20190218094856 48 188 5.0 9.0 0.00 0.00 0.00 68 1016.7
20190218094353 48 200 5.0 10.0 0.00 0.00 0.00 68 1016.7
20190218093850 47 160 6.0 11.0 0.00 0.00 0.00 69 1016.7
20190218093349 47 204 6.0 11.0 0.00 0.00 0.00 69 1016.8
20190218092849 47 175 6.0 10.0 0.00 0.00 0.00 70 1016.8
20190218092347 46 209 6.0 10.0 0.00 0.00 0.00 71 1016.9
20190218091845 46 188 6.0 10.0 0.00 0.00 0.00 71 1016.8
20190218091340 45 205 7.0 11.0 0.00 0.00 0.00 72 1016.9
20190218090839 44 176 7.0 11.0 0.00 0.00 0.00 73 1016.8
20190218090336 44 188 6.0 10.0 0.00 0.00 0.00 74 1016.8
20190218085836 43 167 6.0 10.0 0.00 0.00 0.00 74 1016.9
20190218085330 42 190 5.0 9.0 0.00 0.00 0.00 75 1016.9
20190218084831 42 178 5.0 9.0 0.00 0.00 0.00 75 1016.9
20190218084330 42 178 4.0 8.0 0.00 0.00 0.00 75 1016.9
20190218083829 41 178 4.0 8.0 0.00 0.00 0.00 76 1016.9
20190218083328 41 202 5.0 9.0 0.00 0.00 0.00 76 1016.9
20190218082830 41 168 6.0 9.0 0.00 0.00 0.00 76 1016.9
20190218082327 41 158 6.0 9.0 0.00 0.00 0.00 76 1017.0
20190218081824 41 194 6.0 9.0 0.00 0.00 0.00 76 1017.0
20190218081326 40 171 6.0 9.0 0.00 0.00 0.00 77 1016.9
20190218080819 40 167 5.0 8.0 0.00 0.00 0.00 78 1016.9
20190218080319 40 154 5.0 6.0 0.00 0.00 0.00 78 1017.0
20190218075818 39 178 5.0 5.0 0.00 0.00 0.00 78 1017.1
20190218075314 39 0.0 0.0 0.00 0.00 0.00 78 1017.2
20190218074812 39 0.0 0.0 0.00 0.00 0.00 78 1017.2
20190218064521 39 184 6.0 10.0 0.00 0.00 0.00 77 1017.1
20190218064021 40 184 6.0 8.0 0.00 0.00 0.00 77 1017.1
20190218063522 40 171 6.0 8.0 0.00 0.00 0.00 77 1017.0
20190218063023 40 172 6.0 8.0 0.00 0.00 0.00 77 1017.1
20190218062524 40 186 5.0 8.0 0.00 0.00 0.00 77 1017.1
20190218062021 39 163 5.0 8.0 0.00 0.00 0.00 77 1017.2
20190218061520 39 178 5.0 7.0 0.00 0.00 0.00 77 1017.1
20190218061020 39 163 5.0 8.0 0.00 0.00 0.00 78 1017.1
20190218060522 39 156 5.0 9.0 0.00 0.00 0.00 78 1017.2
20190218060015 39 138 5.0 9.0 0.00 0.00 0.00 79 1017.2
20190218055513 39 151 5.0 7.0 0.00 0.00 0.00 79 1017.2
20190218055012 38 171 5.0 7.0 0.00 0.00 0.00 80 1017.2
20190218054511 38 167 5.0 8.0 0.00 0.00 0.00 80 1017.2
20190218054009 38 159 5.0 8.0 0.00 0.00 0.00 80 1017.3
20190218053506 38 174 5.0 7.0 0.00 0.00 0.00 80 1017.3
20190218053000 38 165 4.0 7.0 0.00 0.00 0.00 80 1017.4
20190218052459 38 183 4.0 6.0 0.00 0.00 0.00 80 1017.4
20190218051959 38 162 5.0 6.0 0.00 0.00 0.00 81 1017.4
20190218051459 38 176 5.0 7.0 0.00 0.00 0.00 81 1017.4
20190218050959 38 165 5.0 8.0 0.00 0.00 0.00 81 1017.5
20190218050459 38 167 5.0 8.0 0.00 0.00 0.00 81 1017.4
20190218045955 38 172 5.0 7.0 0.00 0.00 0.00 81 1017.5
20190218045455 38 183 5.0 7.0 0.00 0.00 0.00 81 1017.5
20190218044956 38 168 5.0 6.0 0.00 0.00 0.00 81 1017.5
20190218044453 38 167 4.0 6.0 0.00 0.00 0.00 81 1017.5
20190218043953 38 163 4.0 6.0 0.00 0.00 0.00 82 1017.5
20190218043452 38 167 5.0 6.0 0.00 0.00 0.00 82 1017.5
20190218042951 38 170 5.0 6.0 0.00 0.00 0.00 82 1017.5
20190218042451 38 173 5.0 6.0 0.00 0.00 0.00 82 1017.5
20190218041940 38 171 5.0 8.0 0.00 0.00 0.00 82 1017.5
20190218041433 38 173 4.0 8.0 0.00 0.00 0.00 82 1017.5
20190218040936 38 172 4.0 7.0 0.00 0.00 0.00 82 1017.5
20190218040429 38 175 3.0 5.0 0.00 0.00 0.00 82 1017.5
20190218035930 38 171 4.0 6.0 0.00 0.00 0.00 82 1017.4
20190218035428 38 168 4.0 6.0 0.00 0.00 0.00 81 1017.5
20190218034929 38 173 4.0 6.0 0.00 0.00 0.00 81 1017.5
20190218034428 38 178 4.0 6.0 0.00 0.00 0.00 81 1017.5
20190218033925 38 155 4.0 5.0 0.00 0.00 0.00 81 1017.5
20190218033421 39 167 4.0 5.0 0.00 0.00 0.00 81 1017.5
20190218032919 39 173 3.0 5.0 0.00 0.00 0.00 81 1017.6
20190218032416 39 165 3.0 5.0 0.00 0.00 0.00 81 1017.6
20190218031918 39 171 4.0 5.0 0.00 0.00 0.00 81 1017.6
20190218031415 39 169 4.0 5.0 0.00 0.00 0.00 81 1017.6
20190218030916 39 173 4.0 6.0 0.00 0.00 0.00 81 1017.7
20190218030416 39 175 4.0 6.0 0.00 0.00 0.00 81 1017.7
20190218025917 39 171 4.0 6.0 0.00 0.00 0.00 81 1017.8
20190218025406 39 175 5.0 6.0 0.00 0.00 0.00 81 1017.8
20190218024906 39 184 4.0 6.0 0.00 0.00 0.00 81 1017.8
20190218024407 39 172 4.0 5.0 0.00 0.00 0.00 80 1017.7
20190218023905 39 162 3.0 5.0 0.00 0.00 0.00 80 1017.7
20190218023404 39 170 3.0 5.0 0.00 0.00 0.00 80 1017.8
20190218022853 39 167 4.0 6.0 0.00 0.00 0.00 80 1017.7
20190218022348 39 175 4.0 6.0 0.00 0.00 0.00 80 1017.8
20190218021847 40 171 4.0 5.0 0.00 0.00 0.00 79 1017.9
20190218021349 40 170 3.0 5.0 0.00 0.00 0.00 79 1017.9
20190218020841 40 171 3.0 5.0 0.00 0.00 0.00 79 1017.9
20190218020340 40 174 4.0 5.0 0.00 0.00 0.00 79 1017.9
20190218015840 40 174 4.0 5.0 0.00 0.00 0.00 79 1017.9
20190218015325 40 171 4.0 5.0 0.00 0.00 0.00 79 1017.9
20190218014826 40 167 4.0 5.0 0.00 0.00 0.00 79 1017.9
20190218014326 40 175 4.0 6.0 0.00 0.00 0.00 79 1017.9
20190218013820 40 173 4.0 6.0 0.00 0.00 0.00 79 1018.0
20190218013310 40 176 4.0 6.0 0.00 0.00 0.00 79 1018.0
20190218012812 40 173 4.0 6.0 0.00 0.00 0.00 79 1018.1
20190218012311 40 171 4.0 6.0 0.00 0.00 0.00 78 1018.1
20190218011812 40 164 4.0 6.0 0.00 0.00 0.00 78 1018.2
20190218011308 41 162 4.0 6.0 0.00 0.00 0.00 77 1018.2
20190218010757 41 165 3.0 5.0 0.00 0.00 0.00 77 1018.1
20190218010256 41 158 2.0 4.0 0.00 0.00 0.00 76 1018.1
20190218005757 41 140 2.0 4.0 0.00 0.00 0.00 76 1018.1
20190218005258 41 132 2.0 4.0 0.00 0.00 0.00 76 1018.2
20190218004758 41 155 2.0 4.0 0.00 0.00 0.00 76 1018.1
20190218004254 41 157 2.0 5.0 0.00 0.00 0.00 76 1018.2
20190218003754 41 157 3.0 5.0 0.00 0.00 0.00 75 1018.2
20190218003244 42 175 4.0 5.0 0.00 0.00 0.00 75 1018.2
20190218002736 42 175 4.0 5.0 0.00 0.00 0.00 74 1018.2
20190218002238 42 173 4.0 5.0 0.00 0.00 0.00 74 1018.1
20190218001736 42 173 4.0 6.0 0.00 0.00 0.00 74 1018.1
20190218001237 42 173 4.0 6.0 0.00 0.00 0.00 74 1018.2
20190218000739 42 164 3.0 6.0 0.00 0.00 0.00 74 1018.1
20190218000228 42 169 3.0 6.0 0.00 0.00 0.00 74 1018.1
20190217235727 42 175 3.0 6.0 0.00 0.00 0.00 73 1018.1
20190217235206 43 191 3.0 5.0 0.00 0.00 0.00 73 1018.0
20190217234708 43 173 4.0 6.0 0.00 0.00 0.00 73 1018.0
20190217234154 43 184 4.0 7.0 0.00 0.00 0.00 73 1018.0
20190217233650 43 193 4.0 7.0 0.00 0.00 0.00 73 1018.0
20190217233149 43 184 4.0 6.0 0.00 0.00 0.00 73 1017.9
20190217232649 43 179 5.0 7.0 0.00 0.00 0.00 73 1017.9
20190217232150 44 194 5.0 7.0 0.00 0.00 0.00 73 1017.8
20190217231638 44 173 4.0 7.0 0.00 0.00 0.00 73 1017.8
20190217231137 44 193 4.0 7.0 0.00 0.00 0.00 74 1017.8
20190217230635 44 174 5.0 6.0 0.00 0.00 0.00 74 1017.8
20190217230115 44 173 4.0 7.0 0.00 0.00 0.00 74 1017.9
20190217225616 44 169 4.0 7.0 0.00 0.00 0.00 74 1017.8
20190217225109 44 153 4.0 7.0 0.00 0.00 0.00 74 1017.8
20190217224607 44 171 4.0 7.0 0.00 0.00 0.00 74 1017.8
20190217224108 44 179 4.0 6.0 0.00 0.00 0.00 74 1017.8
20190217223604 44 175 4.0 6.0 0.00 0.00 0.00 73 1017.8
20190217223102 44 186 4.0 7.0 0.00 0.00 0.00 73 1017.8
20190217222559 44 185 4.0 7.0 0.00 0.00 0.00 73 1017.8
20190217222054 44 192 4.0 6.0 0.00 0.00 0.00 73 1017.8
20190217221552 44 186 3.0 6.0 0.00 0.00 0.00 73 1017.8
20190217221053 44 194 3.0 6.0 0.00 0.00 0.00 73 1017.8
20190217220555 44 175 4.0 6.0 0.00 0.00 0.00 73 1017.8
20190217220054 44 172 4.0 6.0 0.00 0.00 0.00 73 1017.8
20190217215552 44 171 4.0 6.0 0.00 0.00 0.00 73 1017.8
20190217215050 44 179 4.0 6.0 0.00 0.00 0.00 73 1017.8
20190217214546 44 180 3.0 6.0 0.00 0.00 0.00 73 1017.8
20190217214047 44 178 3.0 6.0 0.00 0.00 0.00 73 1017.8
20190217213547 44 193 3.0 6.0 0.00 0.00 0.00 73 1017.8
20190217213047 45 183 4.0 6.0 0.00 0.00 0.00 73 1017.7
20190217212548 45 174 4.0 6.0 0.00 0.00 0.00 73 1017.7
20190217212044 45 178 4.0 6.0 0.00 0.00 0.00 72 1017.7
20190217211545 45 188 3.0 6.0 0.00 0.00 0.00 72 1017.8
20190217211042 45 167 2.0 6.0 0.00 0.00 0.00 72 1017.7
20190217210543 45 180 2.0 5.0 0.00 0.00 0.00 73 1017.8
20190217210042 46 178 3.0 5.0 0.00 0.00 0.00 73 1017.7
20190217205545 46 186 3.0 5.0 0.00 0.00 0.00 73 1017.7
20190217205038 46 189 2.0 5.0 0.00 0.00 0.00 73 1017.7
20190217204535 46 186 2.0 5.0 0.00 0.00 0.00 73 1017.7
20190217204035 46 167 2.0 5.0 0.00 0.00 0.00 73 1017.7
20190217203525 46 196 3.0 5.0 0.00 0.00 0.00 73 1017.6
20190217203021 46 180 4.0 6.0 0.00 0.00 0.00 73 1017.6
20190217202516 46 177 4.0 6.0 0.00 0.00 0.00 73 1017.6
20190217202014 46 165 4.0 6.0 0.00 0.00 0.00 73 1017.7
20190217201515 47 184 4.0 7.0 0.00 0.00 0.00 72 1017.7
20190217201009 47 181 4.0 7.0 0.00 0.00 0.00 72 1017.6
20190217200509 47 172 4.0 6.0 0.00 0.00 0.00 72 1017.6
20190217200006 47 178 3.0 6.0 0.00 0.00 0.00 71 1017.7
20190217195503 48 174 3.0 7.0 0.00 0.00 0.00 70 1017.7
20190217194956 48 183 3.0 7.0 0.00 0.00 0.00 69 1017.6
20190217194458 49 178 3.0 7.0 0.00 0.00 0.00 69 1017.6
20190217193959 49 196 3.0 9.0 0.00 0.00 0.00 68 1017.6
20190217193456 49 198 4.0 9.0 0.00 0.00 0.00 68 1017.5
20190217192954 49 198 6.0 8.0 0.00 0.00 0.00 68 1017.5
20190217192448 49 196 6.0 8.0 0.00 0.00 0.00 68 1017.5
20190217191946 50 177 6.0 8.0 0.00 0.00 0.00 67 1017.5
20190217191442 50 180 6.0 8.0 0.00 0.00 0.00 67 1017.4
20190217190941 50 184 6.0 8.0 0.00 0.00 0.00 67 1017.5
20190217190436 50 176 5.0 8.0 0.00 0.00 0.00 66 1017.5